createdAt,value
2023-04-05T00:00:39.534Z,10.90
2023-04-05T00:03:07.109Z,17.20
2023-04-05T00:05:34.693Z,16.00
2023-04-05T00:08:02.912Z,13.80
2023-04-05T00:10:31.609Z,26.20
2023-04-05T00:12:58.986Z,26.20
2023-04-05T00:15:27.779Z,26.90
2023-04-05T00:17:56.131Z,24.70
2023-04-05T00:20:23.211Z,24.90
2023-04-05T00:22:53.074Z,25.20
2023-04-05T00:25:21.847Z,27.20
2023-04-05T00:27:48.922Z,30.00
2023-04-05T00:30:21.455Z,28.00
2023-04-05T00:32:51.670Z,31.70
2023-04-05T00:35:18.839Z,29.00
2023-04-05T00:37:45.997Z,33.60
2023-04-05T00:40:13.205Z,31.30
2023-04-05T00:42:40.329Z,25.30
2023-04-05T00:45:08.314Z,28.70
2023-04-05T00:47:35.492Z,29.00
2023-04-05T00:50:03.633Z,9.70
2023-04-05T00:52:32.387Z,31.80
2023-04-05T00:54:59.731Z,28.60
2023-04-05T00:57:26.877Z,29.20
2023-04-05T00:59:54.036Z,8.40
2023-04-05T01:02:39.488Z,12.40
2023-04-05T01:05:36.407Z,7.10
2023-04-05T01:08:26.222Z,4.10
2023-04-05T01:10:59.376Z,6.00
2023-04-05T01:13:26.835Z,2.70
2023-04-05T01:15:54.061Z,8.40
2023-04-05T01:18:22.054Z,8.80
2023-04-05T01:21:34.198Z,4.90
2023-04-05T01:24:35.000Z,8.60
2023-04-05T01:27:45.844Z,10.50
2023-04-05T01:30:24.442Z,4.80
2023-04-05T01:33:25.437Z,12.80
2023-04-05T01:36:17.945Z,28.60
2023-04-05T01:38:49.213Z,12.50
2023-04-05T01:41:16.628Z,23.30
2023-04-05T01:43:43.800Z,9.10
2023-04-05T01:46:10.982Z,11.90
2023-04-05T01:48:38.128Z,14.00
2023-04-05T01:51:05.490Z,14.80
2023-04-05T01:53:32.966Z,8.10
2023-04-05T01:56:03.203Z,10.50
2023-04-05T01:58:30.360Z,23.90
2023-04-05T02:00:57.985Z,23.90
2023-04-05T02:03:25.872Z,24.60
2023-04-05T02:05:53.081Z,25.70
2023-04-05T02:08:20.161Z,27.00
2023-04-05T02:10:47.683Z,11.90
2023-04-05T02:13:14.918Z,22.70
2023-04-05T02:15:47.484Z,22.80
2023-04-05T02:18:14.473Z,20.80
2023-04-05T02:20:42.418Z,5.20
2023-04-05T02:23:09.745Z,32.40
2023-04-05T02:25:36.988Z,38.40
2023-04-05T02:28:04.145Z,27.00
2023-04-05T02:30:31.840Z,31.20
2023-04-05T02:32:59.160Z,33.40
2023-04-05T02:35:26.278Z,52.00
2023-04-05T02:37:53.514Z,51.60
2023-04-05T02:40:21.910Z,51.60
2023-04-05T02:42:49.070Z,22.40
2023-04-05T02:45:16.167Z,5.70
2023-04-05T02:47:43.255Z,6.70
2023-04-05T02:50:10.557Z,6.30
2023-04-05T02:52:40.859Z,4.70
2023-04-05T02:55:08.508Z,6.00
2023-04-05T02:57:35.799Z,3.40
2023-04-05T03:00:05.347Z,2.70
2023-04-05T03:02:32.493Z,7.90
2023-04-05T03:05:02.557Z,22.80
2023-04-05T03:07:30.573Z,2.80
2023-04-05T03:09:58.234Z,22.90
2023-04-05T03:12:25.378Z,1.00
2023-04-05T03:14:53.192Z,17.60
2023-04-05T03:17:20.487Z,21.30
2023-04-05T03:19:48.240Z,21.70
2023-04-05T03:22:16.529Z,18.70
2023-04-05T03:24:44.592Z,18.20
2023-04-05T03:27:13.264Z,7.90
2023-04-05T03:29:45.067Z,6.80
2023-04-05T03:32:14.060Z,5.00
2023-04-05T03:34:41.232Z,13.10
2023-04-05T03:37:08.978Z,3.30
2023-04-05T03:39:36.868Z,13.90
2023-04-05T03:42:04.093Z,20.70
2023-04-05T03:44:31.492Z,1.40
2023-04-05T03:47:01.457Z,1.50
2023-04-05T03:49:43.719Z,1.10
2023-04-05T03:52:36.900Z,2.50
2023-04-05T03:55:34.913Z,1.00
2023-04-05T03:58:39.073Z,1.00
2023-04-05T04:01:27.643Z,1.90
2023-04-05T04:03:55.570Z,28.70
2023-04-05T04:06:39.657Z,29.40
2023-04-05T04:09:21.476Z,60.90
2023-04-05T04:11:51.927Z,58.40
2023-04-05T04:14:21.956Z,53.70
2023-04-05T04:16:54.999Z,59.10
2023-04-05T04:19:25.392Z,60.00
2023-04-05T04:21:59.272Z,17.10
2023-04-05T04:24:30.361Z,17.80
2023-04-05T04:27:07.012Z,18.80
2023-04-05T04:30:31.144Z,19.40
2023-04-05T04:33:03.363Z,21.90
2023-04-05T04:35:41.118Z,17.40
2023-04-05T04:41:15.701Z,18.50
2023-04-05T04:44:04.923Z,17.00
2023-04-05T04:46:43.216Z,13.20
2023-04-05T04:52:08.650Z,16.90
2023-04-05T04:54:42.746Z,15.30
2023-04-05T04:57:11.753Z,8.30
2023-04-05T05:00:03.407Z,18.50
2023-04-05T05:02:38.057Z,17.80
2023-04-05T05:05:07.698Z,6.30
2023-04-05T05:07:44.906Z,11.20
2023-04-05T05:10:16.298Z,7.30
2023-04-05T05:12:45.079Z,10.80
2023-04-05T05:15:15.252Z,7.50
2023-04-05T05:20:34.447Z,16.80
2023-04-05T05:23:06.475Z,9.20
2023-04-05T05:25:51.378Z,7.00
2023-04-05T05:28:26.584Z,6.50
2023-04-05T05:30:53.783Z,5.50
2023-04-05T05:33:21.236Z,5.90
2023-04-05T05:35:52.833Z,4.50
2023-04-05T05:38:20.043Z,6.90
2023-04-05T05:40:47.159Z,4.00
2023-04-05T05:43:15.642Z,6.50
2023-04-05T05:45:42.936Z,3.50
2023-04-05T05:48:10.028Z,6.20
2023-04-05T05:50:39.506Z,11.00
2023-04-05T05:53:06.780Z,1.00
2023-04-05T05:55:33.946Z,1.00
2023-04-05T05:58:01.028Z,48.40
2023-04-05T06:00:28.150Z,48.00
2023-04-05T06:02:55.492Z,49.30
2023-04-05T06:05:22.934Z,43.00
2023-04-05T06:07:50.015Z,44.80
2023-04-05T06:10:17.040Z,44.20
2023-04-05T06:12:44.084Z,42.60
2023-04-05T06:15:11.596Z,45.40
2023-04-05T06:17:42.770Z,47.10
2023-04-05T06:20:14.200Z,5.80
2023-04-05T06:22:44.659Z,2.80
2023-04-05T06:25:43.431Z,8.70
2023-04-05T06:28:53.475Z,3.70
2023-04-05T06:43:31.657Z,1.00
2023-04-05T06:46:13.956Z,1.00
2023-04-05T06:48:41.339Z,1.00
2023-04-05T06:51:08.869Z,1.00
2023-04-05T06:53:36.307Z,1.00
2023-04-05T06:56:03.513Z,1.00
2023-04-05T06:58:30.997Z,1.00
2023-04-05T07:00:58.638Z,1.00
2023-04-05T07:03:25.752Z,1.00
2023-04-05T07:05:54.356Z,1.00
2023-04-05T07:08:22.011Z,1.00
2023-04-05T07:10:50.459Z,1.00
2023-04-05T07:13:19.373Z,1.00
2023-04-05T07:15:46.851Z,1.00
2023-04-05T07:18:17.533Z,1.00
2023-04-05T07:20:52.336Z,1.00
2023-04-05T07:23:20.020Z,1.00
2023-04-05T07:25:48.315Z,1.00
2023-04-05T07:28:15.319Z,1.00
2023-04-05T07:30:42.600Z,1.00
2023-04-05T07:33:09.932Z,1.00
2023-04-05T07:35:37.263Z,1.00
2023-04-05T07:38:04.617Z,1.00
2023-04-05T07:40:31.692Z,1.00
2023-04-05T07:42:58.857Z,1.00
2023-04-05T07:45:26.304Z,1.00
2023-04-05T07:47:53.431Z,1.00
2023-04-05T07:50:20.715Z,1.00
2023-04-05T07:52:47.750Z,1.00
2023-04-05T07:55:14.832Z,1.00
2023-04-05T07:57:42.030Z,1.00
2023-04-05T08:00:13.582Z,1.00
2023-04-05T08:02:41.020Z,1.00
2023-04-05T08:05:08.539Z,1.00
2023-04-05T08:07:35.695Z,1.00
2023-04-05T08:10:04.759Z,1.00
2023-04-05T08:12:32.660Z,1.00
2023-04-05T08:14:59.683Z,1.00
2023-04-05T08:17:28.569Z,1.00
2023-04-05T08:19:56.459Z,1.00
2023-04-05T08:22:23.489Z,1.00
2023-04-05T08:24:50.652Z,1.00
2023-04-05T08:27:18.817Z,1.00
2023-04-05T08:29:45.924Z,1.00
2023-04-05T08:32:13.143Z,1.00
2023-04-05T08:34:40.321Z,1.00
2023-04-05T08:37:07.683Z,1.00
2023-04-05T08:39:37.857Z,1.00
2023-04-05T08:42:15.883Z,1.00
2023-04-05T08:44:48.477Z,1.00
2023-04-05T08:47:20.692Z,1.00
2023-04-05T08:49:48.970Z,1.00
2023-04-05T08:52:16.291Z,1.00
2023-04-05T08:54:43.812Z,1.00
2023-04-05T08:57:11.200Z,1.00
2023-04-05T08:59:42.418Z,1.00
2023-04-05T09:02:17.465Z,1.00
2023-04-05T09:04:46.359Z,1.00
2023-04-05T09:07:17.659Z,1.00
2023-04-05T09:09:54.868Z,1.00
2023-04-05T09:12:23.330Z,1.00
2023-04-05T09:14:52.006Z,7.60
2023-04-05T09:17:19.455Z,1.00
2023-04-05T09:19:46.645Z,1.00
2023-04-05T09:22:18.421Z,1.00
2023-04-05T09:24:47.145Z,16.10
2023-04-05T09:27:17.208Z,1.00
2023-04-05T09:29:47.574Z,1.00
2023-04-05T09:32:18.416Z,1.00
2023-04-05T09:34:45.970Z,1.00
2023-04-05T09:37:15.869Z,1.00
2023-04-05T09:39:44.314Z,1.00
2023-04-05T09:42:15.644Z,1.00
2023-04-05T09:45:05.245Z,1.00
2023-04-05T09:47:36.596Z,10.30
2023-04-05T09:50:22.025Z,1.00
2023-04-05T09:52:49.485Z,18.90
2023-04-05T09:55:28.099Z,1.00
2023-04-05T09:57:55.361Z,1.00
2023-04-05T10:00:23.257Z,9.60
2023-04-05T10:02:55.872Z,4.30
2023-04-05T10:05:29.299Z,9.10
2023-04-05T10:07:57.166Z,1.00
2023-04-05T10:10:26.132Z,1.00
2023-04-05T10:12:54.920Z,1.00
2023-04-05T10:15:23.429Z,1.00
2023-04-05T10:18:08.057Z,1.20
2023-04-05T10:20:43.839Z,1.00
2023-04-05T10:23:24.956Z,4.20
2023-04-05T10:25:53.202Z,1.00
2023-04-05T10:28:37.709Z,1.00
2023-04-05T10:31:37.769Z,1.00
2023-04-05T10:34:24.555Z,1.00
2023-04-05T10:37:00.937Z,1.00
2023-04-05T10:39:41.222Z,5.60
2023-04-05T10:42:20.374Z,1.00
2023-04-05T10:44:53.557Z,1.00
2023-04-05T10:47:27.358Z,1.00
2023-04-05T10:49:57.692Z,3.00
2023-04-05T10:52:25.751Z,1.00
2023-04-05T10:54:54.144Z,1.00
2023-04-05T10:57:22.952Z,1.00
2023-04-05T10:59:52.339Z,5.90
2023-04-05T11:02:20.051Z,7.10
2023-04-05T11:04:55.357Z,1.00
2023-04-05T11:07:22.944Z,1.00
2023-04-05T11:10:07.501Z,1.00
2023-04-05T11:12:46.904Z,9.10
2023-04-05T11:15:27.744Z,1.00
2023-04-05T11:18:22.633Z,7.50
2023-04-05T11:21:05.990Z,7.90
2023-04-05T11:23:33.137Z,7.90
2023-04-05T11:26:09.253Z,7.80
2023-04-05T11:28:42.018Z,5.20
2023-04-05T11:31:20.780Z,1.00
2023-04-05T11:33:55.679Z,1.00
2023-04-05T11:36:39.365Z,1.00
2023-04-05T11:39:18.739Z,1.00
2023-04-05T11:41:56.384Z,1.00
2023-04-05T11:44:24.802Z,1.00
2023-04-05T11:46:55.776Z,1.00
2023-04-05T11:49:25.269Z,1.00
2023-04-05T11:51:54.042Z,1.00
2023-04-05T11:54:32.437Z,1.00
2023-04-05T11:57:00.224Z,1.00
2023-04-05T11:59:35.948Z,1.00
2023-04-05T12:02:09.394Z,1.00
2023-04-05T12:04:37.959Z,1.00
2023-04-05T12:07:20.158Z,1.00
2023-04-05T12:10:13.955Z,1.00
2023-04-05T12:12:44.800Z,1.00
2023-04-05T12:15:19.116Z,1.00
2023-04-05T12:17:55.311Z,1.00
2023-04-05T12:20:24.784Z,1.00
2023-04-05T12:22:57.046Z,1.00
2023-04-05T12:25:24.925Z,1.00
2023-04-05T12:27:52.328Z,1.00
2023-04-05T12:30:22.857Z,1.00
2023-04-05T12:32:55.786Z,1.00
2023-04-05T12:35:35.197Z,1.00
2023-04-05T12:38:06.317Z,1.00
2023-04-05T12:40:37.785Z,1.00
2023-04-05T12:43:09.446Z,1.00
2023-04-05T12:45:40.560Z,1.00
2023-04-05T12:48:13.935Z,2.80
2023-04-05T12:50:49.635Z,1.00
2023-04-05T12:53:22.463Z,2.30
2023-04-05T12:55:55.514Z,2.40
2023-04-05T12:58:37.284Z,1.00
2023-04-05T13:01:04.714Z,5.60
2023-04-05T13:03:32.168Z,1.00
2023-04-05T13:05:59.596Z,1.60
2023-04-05T13:08:27.741Z,5.30
2023-04-05T13:10:57.736Z,4.70
2023-04-05T13:13:25.388Z,3.60
2023-04-05T13:15:52.797Z,5.60
2023-04-05T13:18:20.684Z,1.90
2023-04-05T13:20:48.052Z,2.90
2023-04-05T13:23:15.450Z,3.50
2023-04-05T13:25:46.881Z,2.80
2023-04-05T13:28:14.306Z,2.60
2023-04-05T13:30:41.470Z,1.00
2023-04-05T13:33:08.740Z,5.00
2023-04-05T13:35:35.849Z,1.60
2023-04-05T13:38:04.656Z,4.20
2023-04-05T13:40:32.700Z,1.00
2023-04-05T13:43:00.646Z,1.00
2023-04-05T13:45:28.125Z,3.50
2023-04-05T13:47:56.055Z,5.90
2023-04-05T13:50:23.333Z,1.00
2023-04-05T13:53:00.501Z,1.00
2023-04-05T13:55:27.540Z,1.00
2023-04-05T13:57:54.711Z,1.00
2023-04-05T14:00:22.163Z,6.50
2023-04-05T14:02:51.371Z,1.00
2023-04-05T14:05:18.700Z,1.00
2023-04-05T14:07:46.495Z,1.00
2023-04-05T14:10:13.661Z,1.00
2023-04-05T14:12:40.713Z,1.00
2023-04-05T14:15:08.397Z,1.00
2023-04-05T14:17:35.625Z,1.00
2023-04-05T14:20:02.673Z,1.00
2023-04-05T14:22:29.971Z,2.70
2023-04-05T14:24:57.083Z,1.00
2023-04-05T14:27:27.035Z,1.00
2023-04-05T14:29:57.280Z,1.00
2023-04-05T14:32:25.929Z,1.00
2023-04-05T14:34:53.184Z,1.00
2023-04-05T14:37:20.380Z,1.00
2023-04-05T14:39:47.652Z,1.90
2023-04-05T14:42:14.885Z,1.00
2023-04-05T14:44:42.163Z,2.50
2023-04-05T14:47:09.494Z,3.60
2023-04-05T14:49:36.482Z,1.60
2023-04-05T14:52:03.926Z,2.70
2023-04-05T14:54:30.969Z,1.00
2023-04-05T14:56:58.233Z,1.00
2023-04-05T14:59:26.351Z,5.70
2023-04-05T15:01:53.915Z,1.00
2023-04-05T15:04:21.208Z,3.50
2023-04-05T15:06:48.394Z,7.80
2023-04-05T15:09:15.624Z,9.30
2023-04-05T15:11:42.655Z,1.00
2023-04-05T15:14:13.377Z,4.10
2023-04-05T15:16:48.695Z,1.10
2023-04-05T15:19:16.394Z,3.30
2023-04-05T15:21:44.050Z,1.00
2023-04-05T15:24:11.886Z,1.00
2023-04-05T15:26:40.846Z,1.00
2023-04-05T15:29:07.941Z,7.00
2023-04-05T15:31:35.330Z,1.90
2023-04-05T15:34:08.250Z,8.20
2023-04-05T15:36:36.424Z,3.70
2023-04-05T15:39:05.341Z,6.20
2023-04-05T15:41:34.704Z,5.70
2023-04-05T15:44:02.069Z,1.00
2023-04-05T15:46:30.149Z,2.80
2023-04-05T15:48:57.246Z,1.30
2023-04-05T15:51:24.625Z,3.90
2023-04-05T15:53:52.141Z,2.60
2023-04-05T15:56:19.254Z,9.70
2023-04-05T15:58:46.454Z,17.30
2023-04-05T16:01:14.057Z,1.00
2023-04-05T16:03:42.056Z,8.80
2023-04-05T16:06:09.422Z,8.90
2023-04-05T16:08:36.676Z,10.70
2023-04-05T16:11:04.044Z,1.00
2023-04-05T16:13:31.348Z,1.00
2023-04-05T16:15:58.468Z,1.00
2023-04-05T16:18:26.123Z,1.00
2023-04-05T16:20:53.221Z,1.00
2023-04-05T16:23:20.549Z,1.30
2023-04-05T16:25:47.973Z,1.00
2023-04-05T16:28:15.350Z,6.50
2023-04-05T16:30:45.677Z,3.40
2023-04-05T16:33:14.802Z,1.00
2023-04-05T16:35:42.197Z,4.30
2023-04-05T16:38:09.340Z,2.00
2023-04-05T16:40:36.711Z,9.00
2023-04-05T16:43:03.880Z,6.40
2023-04-05T16:45:33.809Z,5.90
2023-04-05T16:48:01.015Z,8.80
2023-04-05T16:50:28.287Z,1.00
2023-04-05T16:52:55.532Z,7.70
2023-04-05T16:55:22.576Z,12.30
2023-04-05T16:57:50.006Z,11.10
2023-04-05T17:00:17.392Z,10.70
2023-04-05T17:02:44.703Z,11.50
2023-04-05T17:05:11.999Z,10.70
2023-04-05T17:07:39.143Z,10.70
2023-04-05T17:10:07.052Z,15.90
2023-04-05T17:12:35.306Z,18.40
2023-04-05T17:15:03.052Z,6.70
2023-04-05T17:17:30.526Z,6.60
2023-04-05T17:19:57.599Z,8.30
2023-04-05T17:22:24.873Z,13.40
2023-04-05T17:24:51.957Z,11.00
2023-04-05T17:27:19.128Z,7.50
2023-04-05T17:29:46.181Z,9.00
2023-04-05T17:32:13.272Z,10.40
2023-04-05T17:34:40.772Z,9.70
2023-04-05T17:37:07.874Z,4.10
2023-04-05T17:39:35.018Z,6.10
2023-04-05T17:42:02.262Z,10.40
2023-04-05T17:44:30.631Z,1.00
2023-04-05T17:47:08.516Z,12.50
2023-04-05T17:49:37.806Z,10.70
2023-04-05T17:52:08.593Z,13.20
2023-04-05T17:54:39.241Z,7.10
2023-04-05T17:57:07.302Z,13.70
2023-04-05T17:59:36.298Z,6.40
2023-04-05T18:02:03.465Z,6.40
2023-04-05T18:04:30.953Z,1.00
2023-04-05T18:06:58.316Z,1.00
2023-04-05T18:09:25.850Z,1.00
2023-04-05T18:11:52.906Z,3.20
2023-04-05T18:14:19.939Z,4.60
2023-04-05T18:16:47.335Z,1.00
2023-04-05T18:19:14.706Z,4.70
2023-04-05T18:21:41.783Z,8.60
2023-04-05T18:24:09.076Z,18.70
2023-04-05T18:26:36.158Z,13.90
2023-04-05T18:29:05.218Z,2.70
2023-04-05T18:31:32.708Z,1.00
2023-04-05T18:34:06.031Z,11.00
2023-04-05T18:36:33.266Z,1.00
2023-04-05T18:39:04.776Z,4.60
2023-04-05T18:41:32.465Z,7.50
2023-04-05T18:44:01.183Z,4.70
2023-04-05T18:46:28.546Z,1.00
2023-04-05T18:48:56.385Z,11.60
2023-04-05T18:51:26.042Z,25.70
2023-04-05T18:53:53.101Z,19.90
2023-04-05T18:56:21.301Z,19.80
2023-04-05T18:58:50.272Z,22.20
2023-04-05T19:01:19.000Z,16.50
2023-04-05T19:03:47.649Z,15.00
2023-04-05T19:06:15.579Z,1.00
2023-04-05T19:08:43.022Z,8.20
2023-04-05T19:11:13.723Z,1.00
2023-04-05T19:13:42.174Z,1.00
2023-04-05T19:16:09.557Z,1.00
2023-04-05T19:18:36.847Z,1.00
2023-04-05T19:21:04.170Z,1.00
2023-04-05T19:23:31.368Z,1.00
2023-04-05T19:25:58.974Z,1.00
2023-04-05T19:28:27.072Z,1.00
2023-04-05T19:30:54.860Z,8.40
2023-04-05T19:33:22.298Z,1.00
2023-04-05T19:35:49.666Z,1.00
2023-04-05T19:38:16.842Z,1.00
2023-04-05T19:40:44.190Z,1.00
2023-04-05T19:43:12.601Z,8.50
2023-04-05T19:45:40.100Z,10.50
2023-04-05T19:48:36.999Z,8.80
2023-04-05T19:51:09.448Z,1.00
2023-04-05T19:53:51.039Z,1.00
2023-04-05T19:56:32.574Z,1.00
2023-04-05T19:59:00.996Z,1.00
2023-04-05T20:01:32.463Z,1.00
2023-04-05T20:04:00.178Z,1.10
2023-04-05T20:06:28.236Z,1.00
2023-04-05T20:09:03.704Z,1.00
2023-04-05T20:11:31.665Z,1.00
2023-04-05T20:14:04.094Z,1.80
2023-04-05T20:16:37.067Z,1.00
2023-04-05T20:19:08.894Z,9.40
2023-04-05T20:21:38.631Z,2.60
2023-04-05T20:24:09.931Z,3.30
2023-04-05T20:26:37.221Z,8.70
2023-04-05T20:29:08.580Z,13.70
2023-04-05T20:31:40.121Z,6.20
2023-04-05T20:34:13.184Z,5.00
2023-04-05T20:37:02.193Z,6.00
2023-04-05T20:39:30.999Z,12.10
2023-04-05T20:41:58.479Z,1.00
2023-04-05T20:44:26.466Z,10.90
2023-04-05T20:46:56.100Z,8.50
2023-04-05T20:49:24.656Z,5.80
2023-04-05T20:51:52.115Z,2.90
2023-04-05T20:54:20.310Z,6.30
2023-04-05T20:56:47.452Z,10.00
2023-04-05T20:59:17.373Z,11.20
2023-04-05T21:01:47.249Z,5.70
2023-04-05T21:04:14.873Z,1.00
2023-04-05T21:06:42.401Z,1.00
2023-04-05T21:09:10.274Z,1.00
2023-04-05T21:11:37.902Z,1.00
2023-04-05T21:14:05.209Z,1.00
2023-04-05T21:16:32.359Z,1.00
2023-04-05T21:18:59.504Z,1.00
2023-04-05T21:21:27.467Z,1.00
2023-04-05T21:23:54.781Z,1.00
2023-04-05T21:26:21.934Z,1.00
2023-04-05T21:28:49.048Z,1.00
2023-04-05T21:31:16.538Z,1.00
2023-04-05T21:33:43.688Z,1.00
2023-04-05T21:36:11.388Z,1.00
2023-04-05T21:38:38.554Z,1.00
2023-04-05T21:41:06.009Z,1.00
2023-04-05T21:43:33.081Z,1.00
2023-04-05T21:46:00.111Z,1.00
2023-04-05T21:48:28.481Z,1.00
2023-04-05T21:50:56.048Z,1.00
2023-04-05T21:53:25.704Z,1.00
2023-04-05T21:55:53.804Z,1.00
2023-04-05T21:58:20.921Z,1.00
2023-04-05T22:00:48.045Z,1.00
2023-04-05T22:03:15.131Z,1.00
2023-04-05T22:05:42.265Z,1.00
2023-04-05T22:08:09.726Z,1.00
2023-04-05T22:10:37.791Z,1.00
2023-04-05T22:13:04.881Z,1.00
2023-04-05T22:15:32.013Z,1.00
2023-04-05T22:17:59.302Z,1.00
2023-04-05T22:20:26.703Z,1.00
2023-04-05T22:22:55.017Z,1.00
2023-04-05T22:25:22.403Z,1.00
2023-04-05T22:27:49.445Z,1.00
2023-04-05T22:30:16.740Z,1.00
2023-04-05T22:32:43.933Z,1.00
2023-04-05T22:35:11.194Z,1.00
2023-04-05T22:37:38.327Z,1.00
2023-04-05T22:40:06.292Z,1.00
2023-04-05T22:42:33.337Z,1.00
2023-04-05T22:45:03.177Z,1.00
2023-04-05T22:47:30.366Z,1.00
2023-04-05T22:49:57.507Z,1.00
2023-04-05T22:52:24.962Z,1.00
2023-04-05T22:54:52.088Z,1.00
2023-04-05T22:57:19.152Z,1.00
2023-04-05T22:59:46.125Z,1.00
2023-04-05T23:02:13.166Z,1.00
2023-04-05T23:04:40.381Z,1.00
2023-04-05T23:07:09.153Z,1.00
2023-04-05T23:09:36.203Z,1.00
2023-04-05T23:12:03.364Z,1.00
2023-04-05T23:14:30.540Z,1.00
2023-04-05T23:16:57.922Z,1.00
2023-04-05T23:19:25.036Z,1.00
2023-04-05T23:21:52.967Z,1.00
2023-04-05T23:24:19.988Z,1.00
2023-04-05T23:26:46.982Z,1.00
2023-04-05T23:29:14.004Z,1.00
2023-04-05T23:31:41.299Z,1.00
2023-04-05T23:34:08.414Z,1.00
2023-04-05T23:36:35.500Z,1.00
2023-04-05T23:39:02.626Z,1.00
2023-04-05T23:41:29.761Z,1.00
2023-04-05T23:43:57.103Z,1.00
2023-04-05T23:46:24.367Z,1.00
2023-04-05T23:48:52.151Z,1.00
2023-04-05T23:51:19.311Z,1.00
2023-04-05T23:53:46.458Z,1.00
2023-04-05T23:56:14.869Z,1.00
2023-04-05T23:58:45.610Z,1.00
